メインページ
METAR-TAF:

METAR-TAF

空港 :

キト, エクアドル

マリスカル・スクレ国際空港

緯度: 0-06-48S, 経度: 78-21-31W, 海抜: 2400m

現時点の気象観測

当レポートは24分前の21:00(UTC)に作成
の風 13kt
気温 20°C
湿度 60%
気圧 1019 hPa
視程10km以上
高度4000ftの雲は散在している

METAR: SEQM 202100Z 01013KT 9999 SCT040 20/12 Q1019 NOSIG RMK A3010

時間: 16:24 (21:24 UTC)

予報

当レポートは5時間4分前の16:20(UTC)に作成
予報は20日の 18時(UTC)から 21日の 18時(UTC)まで有効
の風 10kt
視程10km以上
高度4000ftの雲は散在している
21日の 0000時(UTC)から
北東の風 4kt
視程10km以上
高度500ftの雲はほとんどない
高度2000ftの千切れ雲あり
21日の 0600時(UTC)から
の風 kt
視程: 6000m
高度500ftの雲は散在している
高度2000ftの千切れ雲あり
散在霧
21日の 1200時(UTC)から
変向風 3kt
視程10km以上
高度3300ftの雲は散在している

TAF: SEQM 201620Z 2018/2118 35010KT 9999 SCT040 FM210000 04004KT 9999 FEW005 BKN020 FM210600 00000KT 6000 BCFG SCT005 BKN020 FM211200 VRB03KT 9999 SCT033 TX26/2018Z TN08/2111Z

4,000以上の空港の気象観測と天気予報(METAR報とTAF報)

利用可能な観測所は地図上に黄色い丸と赤い丸で示す。

丸の上にカーソルを重ねると観測所名を参照できる。

次にクリックすると気象観測と天気予報を参照できる。

マップの切り替え:黒色「×」印の緑ボタンをクリックして拡大、「-」印の緑ボタンをクリックして縮小、緑色の三角印をクリックして隣りの地図に切り替え


METAR-TAF: